Time;durP1;ratioP1;P1;durP2;ratioP2;P2;SDS_P1;SDS_P2;PMS_P1;PMS_P2;Temp;Humidity;BMP_temperature;BMP_pressure;BME280_temperature;BME280_humidity;BME280_pressure;Samples;Min_cycle;Max_cycle;Signal;HPM_P1;HPM_P2
2022/07/20 00:01:53;;;;;;;16.05;6.07;;;;;;;15.27;74.36;99236.06;5008767;28;20111;-90
2022/07/20 00:04:19;;;;;;;24.63;5.72;;;;;;;15.11;74.33;99215.88;5010093;28;20053;-89
2022/07/20 00:06:46;;;;;;;16.70;5.35;;;;;;;15.01;74.27;99211.63;5001557;28;20498;-90
2022/07/20 00:11:57;;;;;;;18.00;5.57;;;;;;;15.03;73.65;99190.09;5014308;28;20038;-90
2022/07/20 00:14:23;;;;;;;11.88;5.72;;;;;;;15.22;73.65;99225.25;4981842;28;20479;-91
2022/07/20 00:16:49;;;;;;;18.05;5.55;;;;;;;14.99;73.52;99199.34;4979541;28;20037;-90
2022/07/20 00:19:16;;;;;;;19.40;5.67;;;;;;;15.08;73.50;99213.00;5000994;28;20037;-89
2022/07/20 00:21:43;;;;;;;11.13;5.40;;;;;;;15.17;73.69;99231.03;4967255;28;20045;-91
2022/07/20 00:24:09;;;;;;;17.90;5.45;;;;;;;15.19;73.48;99216.91;4975954;28;20140;-91
2022/07/20 00:26:35;;;;;;;9.90;4.83;;;;;;;14.91;73.43;99198.34;5010246;28;20120;-89
2022/07/20 00:29:02;;;;;;;17.50;5.03;;;;;;;14.83;73.74;99185.47;4981595;28;20030;-88
2022/07/20 00:31:29;;;;;;;21.02;6.05;;;;;;;15.02;73.43;99215.19;4977177;28;20034;-89
2022/07/20 00:33:55;;;;;;;16.42;5.25;;;;;;;14.94;73.56;99202.34;4995099;28;20052;-89
2022/07/20 00:36:21;;;;;;;11.85;4.63;;;;;;;14.90;73.23;99195.91;5027430;28;20029;-92
2022/07/20 00:38:47;;;;;;;20.87;5.03;;;;;;;14.92;73.36;99205.44;4983919;28;20478;-88
2022/07/20 00:41:14;;;;;;;14.07;4.97;;;;;;;14.81;73.70;99193.28;4978301;28;20379;-89
2022/07/20 00:44:16;;;;;;;13.63;5.30;;;;;;;14.90;73.77;99207.75;4971745;28;20288;-89
2022/07/20 00:46:44;;;;;;;14.35;5.10;;;;;;;14.89;73.90;99202.56;4961520;28;20291;-91
2022/07/20 00:49:12;;;;;;;17.63;6.28;;;;;;;14.89;73.88;99202.56;5017818;28;20045;-90
2022/07/20 00:51:41;;;;;;;17.02;5.50;;;;;;;14.84;73.80;99200.88;4982837;28;20045;-90
2022/07/20 00:54:09;;;;;;;13.73;5.63;;;;;;;14.67;74.02;99182.63;4997065;28;20183;-89
2022/07/20 00:56:36;;;;;;;19.35;5.30;;;;;;;14.66;73.99;99181.00;4994532;28;20038;-91
2022/07/20 00:59:04;;;;;;;15.80;5.50;;;;;;;14.62;73.40;99166.34;4980594;28;20036;-89
2022/07/20 01:01:31;;;;;;;16.95;5.75;;;;;;;14.59;73.39;99174.47;4981040;28;20045;-90
2022/07/20 01:03:58;;;;;;;22.48;5.72;;;;;;;14.41;73.50;99129.88;4982310;28;20108;-89
2022/07/20 01:06:24;;;;;;;;;;;;;;;14.74;73.37;99182.88;4991534;28;20056;-90
2022/07/20 01:08:51;;;;;;;25.38;6.30;;;;;;;14.55;73.21;99157.88;4986493;28;20018;-91
2022/07/20 01:11:18;;;;;;;32.20;6.03;;;;;;;14.70;73.51;99172.88;4989469;28;20092;-89
2022/07/20 01:13:45;;;;;;;17.83;5.13;;;;;;;14.25;73.40;99122.28;4983587;28;20388;-91
2022/07/20 01:16:12;;;;;;;15.18;5.55;;;;;;;14.46;73.83;99159.88;4999075;28;20034;-90
2022/07/20 01:18:38;;;;;;;23.00;5.13;;;;;;;14.34;73.74;99134.00;5002232;28;20049;-90
2022/07/20 01:21:07;;;;;;;21.67;5.22;;;;;;;14.57;73.57;99170.13;4988340;28;20044;-91
2022/07/20 01:23:34;;;;;;;16.05;5.40;;;;;;;14.42;73.16;99145.22;5012503;28;20084;-88
2022/07/20 01:26:01;;;;;;;11.88;5.45;;;;;;;14.53;73.50;99163.69;5012107;28;20475;-89
2022/07/20 01:28:28;;;;;;;13.48;5.68;;;;;;;14.48;73.60;99158.41;4993762;28;20041;-90
2022/07/20 01:30:54;;;;;;;;;;;;;;;14.55;73.75;99155.13;4983846;28;20041;-91
2022/07/20 01:33:20;;;;;;;19.38;5.68;;;;;;;14.38;73.62;99144.31;4998947;28;19989;-90
2022/07/20 01:35:47;;;;;;;11.63;5.53;;;;;;;14.37;73.58;99129.75;4985524;28;20041;-90
2022/07/20 01:38:13;;;;;;;19.25;5.75;;;;;;;14.38;73.63;99119.56;5027653;28;20049;-90
2022/07/20 01:40:40;;;;;;;13.90;5.55;;;;;;;14.33;73.44;99124.13;5012583;28;20507;-90
2022/07/20 01:43:06;;;;;;;15.07;5.85;;;;;;;14.42;73.46;99128.72;4972417;28;20052;-89
2022/07/20 01:45:39;;;;;;;33.25;6.45;;;;;;;14.42;73.72;99136.97;5004617;28;20056;-91
2022/07/20 01:48:06;;;;;;;30.92;6.05;;;;;;;14.08;73.67;99084.81;4985002;28;20040;-90
2022/07/20 01:50:32;;;;;;;15.48;5.65;;;;;;;14.37;73.50;99123.44;4982515;28;20419;-90
2022/07/20 01:52:59;;;;;;;;;;;;;;;14.50;73.68;99147.03;4991646;28;20048;-90
2022/07/20 01:55:27;;;;;;;13.10;5.93;;;;;;;14.47;73.63;99140.31;5002342;28;20394;-91
2022/07/20 01:57:53;;;;;;;13.23;5.95;;;;;;;14.47;73.63;99136.72;4998980;28;20050;-91
2022/07/20 02:00:21;;;;;;;15.40;5.20;;;;;;;14.40;73.47;99131.00;4980758;28;20042;-91
2022/07/20 02:02:50;;;;;;;16.17;5.50;;;;;;;14.40;73.80;99120.78;4979193;28;20053;-90
2022/07/20 02:05:18;;;;;;;12.70;5.63;;;;;;;14.26;73.54;99099.13;4976610;28;20437;-90
2022/07/20 02:07:44;;;;;;;16.98;5.57;;;;;;;14.33;73.65;99102.13;5002700;28;20419;-89
2022/07/20 02:10:12;;;;;;;16.20;6.40;;;;;;;14.42;73.42;99113.03;5012157;28;20418;-90
2022/07/20 02:12:39;;;;;;;18.42;5.47;;;;;;;14.29;73.43;99101.22;4977113;28;20034;-90
2022/07/20 02:15:08;;;;;;;14.70;6.10;;;;;;;14.08;72.95;99051.84;4991823;28;20041;-90
2022/07/20 02:17:35;;;;;;;18.10;7.85;;;;;;;14.27;73.40;99065.03;4979966;28;20037;-90
2022/07/20 02:20:01;;;;;;;13.60;6.43;;;;;;;14.31;73.67;99074.19;5012133;28;20068;-90
2022/07/20 02:22:30;;;;;;;20.83;7.28;;;;;;;14.64;73.20;99095.28;4982497;28;20037;-90
2022/07/20 02:24:56;;;;;;;25.17;7.47;;;;;;;14.63;72.87;99085.41;4996981;28;20050;-90
2022/07/20 02:27:22;;;;;;;17.10;6.13;;;;;;;14.69;72.85;99086.00;5009215;28;20042;-90
2022/07/20 02:29:48;;;;;;;21.65;7.03;;;;;;;14.50;72.49;99026.03;5010826;28;20692;-90
2022/07/20 02:32:15;;;;;;;16.92;6.72;;;;;;;14.74;72.53;99048.03;4971345;28;20033;-90
2022/07/20 02:34:41;;;;;;;17.05;6.97;;;;;;;14.93;72.74;99052.09;4977383;28;20103;-91
2022/07/20 02:37:07;;;;;;;20.93;6.47;;;;;;;15.01;72.24;99068.50;4980669;28;20038;-90
2022/07/20 02:39:34;;;;;;;18.90;5.68;;;;;;;15.19;71.43;99080.00;4977463;28;20356;-89
2022/07/20 02:42:00;;;;;;;17.30;6.45;;;;;;;15.25;71.43;99064.84;4974003;28;20065;-90
2022/07/20 02:44:26;;;;;;;18.75;5.97;;;;;;;15.32;70.83;99052.44;4980419;28;20042;-90
2022/07/20 02:46:54;;;;;;;18.40;5.83;;;;;;;15.17;70.58;99009.94;4996757;28;20038;-91
2022/07/20 02:49:20;;;;;;;9.38;4.90;;;;;;;15.33;70.31;99007.22;4964637;28;20041;-91
2022/07/20 02:51:47;;;;;;;13.40;5.07;;;;;;;15.84;70.13;99068.84;5015836;28;20038;-89
2022/07/20 02:54:13;;;;;;;13.43;4.57;;;;;;;15.68;69.79;99034.94;5012666;28;20052;-89
2022/07/20 02:56:39;;;;;;;16.20;5.43;;;;;;;15.69;69.58;99045.63;4982462;28;20657;-91
2022/07/20 02:59:05;;;;;;;13.27;4.60;;;;;;;15.70;69.92;99052.75;4993036;28;20049;-89
2022/07/20 03:01:33;;;;;;;10.23;5.03;;;;;;;15.76;70.00;99046.94;4979745;28;20125;-90
2022/07/20 03:03:59;;;;;;;14.77;4.70;;;;;;;15.86;70.23;99055.50;4968384;28;20088;-90
2022/07/20 03:06:25;;;;;;;14.25;4.57;;;;;;;15.74;70.21;99039.84;4984611;28;20038;-89
2022/07/20 03:08:52;;;;;;;14.03;4.30;;;;;;;15.89;70.02;99048.47;4997468;28;20045;-90
2022/07/20 03:11:18;;;;;;;18.15;4.95;;;;;;;15.80;70.22;99023.06;4977450;28;20041;-91
2022/07/20 03:13:44;;;;;;;17.67;4.80;;;;;;;15.90;70.32;99015.06;4976165;28;20050;-89
2022/07/20 03:16:11;;;;;;;13.10;4.40;;;;;;;15.99;69.84;99020.38;4982783;28;20407;-89
2022/07/20 03:18:37;;;;;;;12.30;4.53;;;;;;;16.01;69.72;99000.72;4985950;28;20095;-90
2022/07/20 03:21:04;;;;;;;14.60;4.72;;;;;;;16.09;70.14;98995.03;4974322;28;20288;-92
2022/07/20 03:23:30;;;;;;;14.18;4.40;;;;;;;16.12;69.44;98997.06;4989506;28;20407;-90
2022/07/20 03:25:56;;;;;;;21.70;5.10;;;;;;;16.07;69.63;98974.50;4996592;28;20492;-90
2022/07/20 03:28:23;;;;;;;12.05;4.57;;;;;;;16.00;69.72;98955.03;4997575;28;20280;-91
2022/07/20 03:30:50;;;;;;;17.52;4.43;;;;;;;16.51;69.11;99012.94;4965432;28;20061;-90
2022/07/20 03:33:16;;;;;;;12.07;4.70;;;;;;;16.51;68.98;99005.44;5016017;28;20045;-91
2022/07/20 03:35:43;;;;;;;12.85;5.28;;;;;;;16.45;69.14;98995.84;5017359;28;20038;-89
2022/07/20 03:38:09;;;;;;;10.57;4.20;;;;;;;16.35;69.04;98966.84;4984070;28;20042;-90
2022/07/20 03:40:35;;;;;;;14.52;4.50;;;;;;;16.74;68.93;99018.56;4979634;28;20109;-90
2022/07/20 03:43:02;;;;;;;11.43;5.15;;;;;;;16.56;69.03;98994.13;4989785;28;20124;-89
2022/07/20 03:45:28;;;;;;;11.50;5.25;;;;;;;16.53;69.12;99010.63;4951375;28;20058;-91
2022/07/20 03:47:55;;;;;;;10.40;4.53;;;;;;;16.48;69.03;98991.56;4956580;28;20080;-91
2022/07/20 03:52:51;;;;;;;9.40;4.30;;;;;;;16.43;69.30;99007.25;4973172;28;20588;-89
2022/07/20 03:55:18;;;;;;;16.33;4.50;;;;;;;16.18;69.64;98970.00;4972388;28;20039;-89
2022/07/20 03:57:44;;;;;;;14.95;4.97;;;;;;;16.20;69.66;98971.25;4973799;28;20054;-90
2022/07/20 04:00:11;;;;;;;12.18;4.55;;;;;;;16.17;70.07;98988.53;4970719;28;20051;-90
2022/07/20 04:02:37;;;;;;;18.00;4.75;;;;;;;16.30;70.18;98999.47;4939112;29;20142;-90
2022/07/20 04:05:04;;;;;;;13.98;4.43;;;;;;;16.41;69.97;99015.06;4954432;28;20054;-90
2022/07/20 04:07:31;;;;;;;8.25;4.07;;;;;;;16.11;70.46;98978.91;4972080;28;20067;-89
2022/07/20 04:09:57;;;;;;;10.68;4.50;;;;;;;16.28;70.47;99027.38;4959189;28;20477;-90
2022/07/20 04:12:24;;;;;;;12.50;4.75;;;;;;;16.07;70.90;98989.06;4955127;28;20536;-91
2022/07/20 04:14:52;;;;;;;9.93;4.43;;;;;;;15.96;71.09;98974.25;4971657;28;20113;-90
2022/07/20 04:17:20;;;;;;;12.32;4.95;;;;;;;15.98;70.92;98975.47;4971088;28;20054;-91
2022/07/20 04:19:48;;;;;;;11.95;4.30;;;;;;;16.25;71.45;99014.31;4941699;28;20469;-90
2022/07/20 04:22:15;;;;;;;15.48;4.28;;;;;;;16.01;71.63;98984.19;4947533;28;20140;-90
2022/07/20 04:24:41;;;;;;;12.03;4.47;;;;;;;16.17;72.82;99002.31;4995528;28;20569;-91
2022/07/20 04:27:11;;;;;;;14.35;5.28;;;;;;;16.03;73.51;98979.94;4987852;28;20300;-90
2022/07/20 04:29:37;;;;;;;11.70;4.78;;;;;;;16.01;73.49;98973.97;4958739;28;20513;-91
2022/07/20 04:32:04;;;;;;;14.60;4.75;;;;;;;15.93;73.63;98948.19;4957141;28;20451;-90
2022/07/20 04:34:30;;;;;;;14.40;4.80;;;;;;;15.96;73.96;98949.44;4975336;28;20086;-90
2022/07/20 04:36:57;;;;;;;8.02;4.90;;;;;;;16.04;74.72;98966.94;4976208;28;20500;-89
2022/07/20 04:39:23;;;;;;;9.88;4.90;;;;;;;15.95;74.83;98958.84;4974696;28;20042;-90
2022/07/20 04:41:49;;;;;;;16.70;5.28;;;;;;;15.96;75.19;98954.94;4948705;28;20572;-90
2022/07/20 04:44:16;;;;;;;10.15;5.53;;;;;;;15.97;75.80;98951.81;4958980;28;20598;-91
2022/07/20 04:46:42;;;;;;;23.45;4.95;;;;;;;15.99;75.80;98956.97;4960084;28;20145;-91
2022/07/20 04:49:08;;;;;;;13.67;5.33;;;;;;;15.73;75.39;98927.22;4975438;28;20034;-91
2022/07/20 04:51:35;;;;;;;9.13;4.78;;;;;;;16.02;74.91;98972.78;4958428;28;20046;-92
2022/07/20 04:54:02;;;;;;;12.32;4.70;;;;;;;15.96;75.98;98972.28;4973978;28;20162;-90
2022/07/20 04:56:29;;;;;;;15.73;5.40;;;;;;;15.80;75.43;98932.13;4958358;28;20065;-92
2022/07/20 04:58:55;;;;;;;11.27;5.22;;;;;;;16.00;76.79;98942.03;4970230;28;20057;-92
2022/07/20 05:01:25;;;;;;;14.65;5.25;;;;;;;16.04;75.63;98944.88;4971386;28;20124;-89
2022/07/20 05:03:52;;;;;;;12.18;5.25;;;;;;;15.90;76.33;98912.28;4968347;28;20049;-87
2022/07/20 05:06:19;;;;;;;;;;;;;;;16.31;76.71;98954.94;4990883;28;20035;-89
2022/07/20 05:08:45;;;;;;;13.00;5.43;;;;;;;16.15;76.47;98938.44;4975900;28;19922;-87
2022/07/20 05:11:11;;;;;;;10.05;5.80;;;;;;;16.08;76.32;98937.47;4976264;28;20112;-89
2022/07/20 05:13:38;;;;;;;11.20;4.78;;;;;;;15.72;76.27;98887.03;4993684;28;20050;-89
2022/07/20 05:16:05;;;;;;;12.77;5.60;;;;;;;15.98;76.88;98936.06;4977747;28;20416;-89
2022/07/20 05:18:32;;;;;;;12.30;6.00;;;;;;;15.72;77.05;98895.28;5010565;28;20037;-89
2022/07/20 05:21:01;;;;;;;13.18;5.85;;;;;;;15.87;76.88;98926.75;4977988;28;20049;-88
2022/07/20 05:23:27;;;;;;;18.38;6.07;;;;;;;15.84;76.98;98931.03;4995682;28;20038;-89
2022/07/20 05:25:53;;;;;;;14.38;5.97;;;;;;;15.85;77.11;98923.56;4979431;28;20065;-89
2022/07/20 05:28:23;;;;;;;10.60;6.60;;;;;;;15.85;77.37;98926.31;5006484;28;20049;-89
2022/07/20 05:30:50;;;;;;;13.15;6.63;;;;;;;15.90;77.71;98923.28;5011966;28;20293;-88
2022/07/20 05:33:17;;;;;;;11.45;6.78;;;;;;;16.09;77.94;98945.41;5001025;28;20101;-89
2022/07/20 05:35:44;;;;;;;16.08;7.32;;;;;;;16.00;77.66;98935.72;4978230;28;20073;-88
2022/07/20 05:38:11;;;;;;;13.02;7.25;;;;;;;15.71;78.28;98904.72;4996035;28;20050;-88
2022/07/20 05:40:37;;;;;;;27.17;8.75;;;;;;;15.72;78.53;98896.09;4971481;28;20042;-87
2022/07/20 05:43:03;;;;;;;17.77;8.10;;;;;;;16.02;79.01;98931.44;4996278;28;20165;-92
2022/07/20 05:45:29;;;;;;;20.02;7.88;;;;;;;15.97;79.38;98917.94;4978934;28;20050;-89
2022/07/20 05:47:55;;;;;;;15.60;7.70;;;;;;;16.00;79.18;98920.00;4979464;28;20034;-93
2022/07/20 05:50:22;;;;;;;22.40;7.57;;;;;;;15.95;79.78;98909.22;4981263;28;20034;-88
2022/07/20 05:52:48;;;;;;;12.98;7.53;;;;;;;16.03;79.61;98916.50;4994764;28;20436;-88
2022/07/20 05:55:15;;;;;;;17.17;8.30;;;;;;;15.86;79.59;98890.13;5012335;28;20090;-88
2022/07/20 05:57:41;;;;;;;17.92;7.85;;;;;;;15.94;79.64;98888.34;4995660;28;20037;-87
2022/07/20 06:00:08;;;;;;;16.30;8.10;;;;;;;15.80;79.83;98857.69;5010745;28;20077;-90
2022/07/20 06:02:34;;;;;;;28.25;8.05;;;;;;;15.87;80.27;98857.84;5012289;28;20038;-88
2022/07/20 06:05:00;;;;;;;23.50;8.03;;;;;;;15.80;80.25;98833.69;4979691;28;20053;-88
2022/07/20 06:07:26;;;;;;;18.65;8.20;;;;;;;16.00;80.59;98844.75;5011595;28;20034;-93
2022/07/20 06:09:52;;;;;;;20.77;8.55;;;;;;;16.07;80.55;98848.47;5013093;28;20037;-89
2022/07/20 06:12:19;;;;;;;24.90;8.63;;;;;;;16.01;80.82;98830.59;4996498;28;20052;-92
2022/07/20 06:14:45;;;;;;;20.08;9.25;;;;;;;16.12;80.59;98839.88;4987499;28;20053;-88
2022/07/20 06:17:12;;;;;;;24.77;9.80;;;;;;;16.04;80.97;98818.84;4963164;28;20121;-92
2022/07/20 06:19:38;;;;;;;17.40;9.00;;;;;;;16.00;81.17;98795.94;4958682;28;20038;-92
2022/07/20 06:22:04;;;;;;;16.08;7.63;;;;;;;16.11;80.48;98810.72;4978445;28;20046;-93
2022/07/20 06:24:30;;;;;;;11.50;7.10;;;;;;;16.08;81.30;98792.16;4993540;28;20050;-92
2022/07/20 06:26:56;;;;;;;12.90;6.95;;;;;;;16.01;81.17;98769.16;4960501;28;20121;-87
2022/07/20 06:29:23;;;;;;;15.38;7.40;;;;;;;16.03;81.46;98753.84;5008669;28;20037;-90
2022/07/20 06:31:50;;;;;;;16.88;6.20;;;;;;;16.28;80.96;98779.16;4963012;28;20049;-90
2022/07/20 06:34:16;;;;;;;;;;;;;;;16.28;80.97;98784.66;4968938;28;20039;-90
2022/07/20 06:36:44;;;;;;;22.23;6.03;;;;;;;16.07;80.68;98762.19;4963173;28;19932;-88
2022/07/20 06:39:10;;;;;;;20.23;6.65;;;;;;;16.19;80.74;98778.56;5010872;28;20141;-87
2022/07/20 06:41:36;;;;;;;19.77;6.53;;;;;;;16.25;80.70;98774.34;4981667;28;20122;-87
2022/07/20 06:44:10;;;;;;;14.13;6.45;;;;;;;16.24;80.32;98785.78;5011261;28;20153;-90
2022/07/20 06:46:36;;;;;;;;;;;;;;;16.31;79.85;98803.25;4963439;28;20038;-95
2022/07/20 06:49:03;;;;;;;12.63;6.40;;;;;;;16.27;80.23;98788.59;4950401;28;20409;-89
2022/07/20 06:51:29;;;;;;;11.40;6.03;;;;;;;16.45;79.28;98799.97;4992277;28;20050;-89
2022/07/20 06:53:55;;;;;;;15.23;5.75;;;;;;;16.60;79.14;98812.88;4998708;28;20038;-88
2022/07/20 06:56:22;;;;;;;10.23;5.55;;;;;;;16.30;77.80;98787.06;4970832;28;20100;-88
2022/07/20 06:58:48;;;;;;;12.07;5.43;;;;;;;16.39;77.92;98787.63;5004324;28;20042;-86
2022/07/20 07:01:15;;;;;;;14.95;5.80;;;;;;;16.58;78.43;98801.41;4978838;28;20042;-84
2022/07/20 07:03:44;;;;;;;13.67;5.60;;;;;;;16.64;77.20;98807.44;5023119;28;20487;-90
2022/07/20 07:06:12;;;;;;;13.27;5.75;;;;;;;16.57;77.89;98801.78;4985627;28;20123;-93
2022/07/20 07:08:39;;;;;;;15.50;5.53;;;;;;;16.45;78.87;98783.41;4987689;28;20038;-85
2022/07/20 07:11:05;;;;;;;18.75;6.10;;;;;;;16.35;78.96;98759.19;5018646;28;20116;-85
2022/07/20 07:13:32;;;;;;;15.60;7.97;;;;;;;16.47;78.36;98781.09;5031802;28;20046;-87
2022/07/20 07:15:58;;;;;;;21.35;10.88;;;;;;;16.49;77.88;98791.75;5018046;28;20124;-87
2022/07/20 07:18:24;;;;;;;13.98;8.35;;;;;;;16.42;77.29;98793.25;5013879;28;20414;-88
2022/07/20 07:20:50;;;;;;;16.52;7.72;;;;;;;16.45;77.35;98784.22;5005175;28;20049;-88
2022/07/20 07:23:16;;;;;;;15.60;8.15;;;;;;;16.52;78.49;98780.78;5033750;28;20041;-88
2022/07/20 07:25:43;;;;;;;24.30;9.35;;;;;;;16.59;78.30;98772.66;5010467;28;20144;-88
2022/07/20 07:28:09;;;;;;;12.52;6.80;;;;;;;16.73;77.59;98749.25;4984816;28;20045;-87
2022/07/20 07:30:36;;;;;;;15.20;4.97;;;;;;;16.90;75.91;98757.06;5000618;28;20041;-89
2022/07/20 07:33:02;;;;;;;10.48;3.90;;;;;;;17.02;75.75;98758.81;5000020;28;20445;-87
2022/07/20 07:35:28;;;;;;;10.00;3.95;;;;;;;16.97;74.14;98734.28;4997463;28;20052;-87
2022/07/20 07:37:55;;;;;;;5.50;3.20;;;;;;;17.08;72.31;98736.03;4968062;28;20065;-87
2022/07/20 07:40:21;;;;;;;7.63;3.70;;;;;;;17.22;74.08;98741.00;5010184;28;20071;-87
2022/07/20 07:42:48;;;;;;;10.75;4.30;;;;;;;17.39;75.28;98725.88;4998203;28;20136;-88
2022/07/20 07:45:14;;;;;;;8.77;4.25;;;;;;;17.72;75.90;98735.41;5032223;28;20076;-94
2022/07/20 07:47:43;;;;;;;10.82;5.50;;;;;;;17.89;73.64;98740.38;4983407;28;20577;-87
2022/07/20 07:50:10;;;;;;;11.65;5.45;;;;;;;17.99;73.50;98736.94;4995354;28;20049;-88
2022/07/20 07:52:36;;;;;;;8.50;3.70;;;;;;;18.21;71.77;98753.78;4978918;28;20038;-95
2022/07/20 07:55:03;;;;;;;7.95;3.83;;;;;;;17.89;72.07;98712.72;5013037;28;20048;-89
2022/07/20 07:57:30;;;;;;;9.15;4.20;;;;;;;18.13;71.59;98744.63;4984986;28;20034;-88
2022/07/20 07:59:57;;;;;;;13.82;5.95;;;;;;;17.78;73.82;98692.44;5013028;28;20515;-88
2022/07/20 08:02:24;;;;;;;16.05;6.55;;;;;;;18.08;73.06;98736.69;4993344;28;20498;-87
2022/07/20 08:04:50;;;;;;;;;;;;;;;18.24;74.05;98736.44;4977976;28;20121;-88
2022/07/20 08:07:18;;;;;;;11.18;5.30;;;;;;;18.11;73.09;98704.66;4995228;28;20288;-88
2022/07/20 08:09:45;;;;;;;12.30;5.40;;;;;;;18.34;71.89;98729.44;5017805;28;20048;-88
2022/07/20 08:12:11;;;;;;;;;;;;;;;18.32;71.87;98724.28;5019222;28;20042;-88
2022/07/20 08:14:37;;;;;;;12.05;5.97;;;;;;;18.51;72.59;98721.31;5000632;28;19902;-91
2022/07/20 08:17:08;;;;;;;12.85;5.65;;;;;;;18.60;73.06;98686.97;4984791;28;20086;-87
2022/07/20 08:19:37;;;;;;;18.27;9.32;;;;;;;18.80;73.02;98685.59;5000526;28;20042;-87
2022/07/20 08:22:03;;;;;;;17.15;9.23;;;;;;;19.00;70.10;98703.56;4981488;28;20038;-88
2022/07/20 08:24:30;;;;;;;29.77;12.80;;;;;;;18.87;70.29;98662.72;4984189;28;20053;-87
2022/07/20 08:26:56;;;;;;;19.65;9.07;;;;;;;19.32;69.36;98694.69;5017227;28;20038;-87
2022/07/20 08:29:22;;;;;;;20.70;9.50;;;;;;;19.07;68.02;98649.38;4999717;28;20064;-89
2022/07/20 08:31:50;;;;;;;21.88;9.48;;;;;;;19.38;70.59;98675.72;5020817;28;20018;-92
2022/07/20 08:34:17;;;;;;;13.50;5.57;;;;;;;19.45;68.10;98676.53;4984189;28;20030;-91
2022/07/20 08:36:43;;;;;;;12.93;5.82;;;;;;;19.45;69.28;98656.34;4965664;28;20042;-89
2022/07/20 08:39:11;;;;;;;10.70;5.28;;;;;;;19.49;65.80;98655.16;4996988;28;20049;-91
2022/07/20 08:41:40;;;;;;;18.10;8.57;;;;;;;19.65;67.32;98662.41;5023110;28;20077;-91
2022/07/20 08:44:54;;;;;;;17.00;8.27;;;;;;;19.62;66.98;98627.13;5014146;28;20077;-90
2022/07/20 08:47:29;;;;;;;26.63;10.90;;;;;;;19.61;67.85;98645.72;4987298;28;20045;-90
2022/07/20 08:50:03;;;;;;;19.02;9.18;;;;;;;19.38;66.38;98618.31;4987834;28;20054;-91
2022/07/20 08:52:32;;;;;;;13.63;7.70;;;;;;;19.44;64.59;98649.22;4967383;28;20133;-91
2022/07/20 08:54:58;;;;;;;11.90;7.00;;;;;;;19.17;65.56;98634.81;4949641;28;20054;-90
2022/07/20 08:57:27;;;;;;;20.77;10.88;;;;;;;19.18;66.96;98639.19;4995487;28;20026;-90
2022/07/20 08:59:54;;;;;;;24.63;9.57;;;;;;;19.30;65.28;98665.75;4997270;28;20050;-89
2022/07/20 09:02:20;;;;;;;22.08;10.85;;;;;;;19.15;66.18;98645.50;4977201;28;20509;-88
2022/07/20 09:04:59;;;;;;;24.00;12.60;;;;;;;19.19;64.47;98649.88;4983550;28;20041;-89
2022/07/20 09:07:46;;;;;;;24.42;12.20;;;;;;;19.33;66.96;98624.22;4967585;28;20528;-90
2022/07/20 09:10:33;;;;;;;30.23;10.40;;;;;;;19.78;65.36;98682.28;4977277;28;20132;-88
2022/07/20 09:13:06;;;;;;;22.58;10.80;;;;;;;19.66;64.82;98675.09;4998491;28;20097;-89
2022/07/20 09:15:42;;;;;;;13.45;7.05;;;;;;;19.74;62.83;98678.69;4962980;28;20405;-89
2022/07/20 09:18:32;;;;;;;13.30;6.57;;;;;;;19.93;65.06;98675.59;4990854;28;20050;-89
2022/07/20 09:21:07;;;;;;;8.50;5.43;;;;;;;19.85;62.06;98665.66;4987058;28;20578;-88
2022/07/20 09:23:40;;;;;;;10.25;5.30;;;;;;;19.86;61.08;98681.91;4994357;28;20546;-90
2022/07/20 09:26:15;;;;;;;10.32;5.22;;;;;;;19.97;62.22;98664.50;5003396;28;20045;-89
2022/07/20 09:28:51;;;;;;;12.50;4.97;;;;;;;20.11;59.64;98672.88;5015245;28;20046;-89
2022/07/20 09:31:22;;;;;;;11.35;3.90;;;;;;;20.23;61.25;98669.75;5023266;28;20054;-90
2022/07/20 09:34:03;;;;;;;7.10;3.45;;;;;;;20.11;60.92;98651.47;5002691;28;20046;-88
2022/07/20 09:36:35;;;;;;;8.40;2.83;;;;;;;20.49;62.91;98660.22;4964716;28;20562;-89
2022/07/20 09:39:16;;;;;;;7.30;3.13;;;;;;;20.65;62.50;98657.09;5000805;28;20042;-89
2022/07/20 09:41:53;;;;;;;7.75;3.38;;;;;;;20.35;59.50;98627.72;4983237;28;20042;-86
2022/07/20 09:44:28;;;;;;;21.92;4.18;;;;;;;20.31;58.08;98651.09;5011441;28;20042;-89
2022/07/20 09:46:58;;;;;;;11.10;2.87;;;;;;;20.24;61.53;98665.78;4996072;28;20088;-89
2022/07/20 09:49:34;;;;;;;11.90;3.03;;;;;;;20.07;60.50;98652.66;5023550;28;20041;-88
2022/07/20 09:52:02;;;;;;;6.53;2.53;;;;;;;19.61;59.79;98623.56;5006152;28;20053;-90
2022/07/20 09:54:31;;;;;;;7.13;3.40;;;;;;;19.58;60.37;98623.53;4973666;28;20117;-89
2022/07/20 09:57:00;;;;;;;10.90;3.78;;;;;;;19.43;61.91;98608.81;5002131;28;20136;-91
2022/07/20 09:59:31;;;;;;;10.05;4.60;;;;;;;19.22;61.88;98568.75;5018066;28;20042;-90
2022/07/20 10:02:09;;;;;;;17.63;4.82;;;;;;;19.63;60.98;98631.47;5001288;28;20038;-90
2022/07/20 10:04:36;;;;;;;12.25;4.53;;;;;;;19.29;62.54;98579.06;4967964;28;20049;-88
2022/07/20 10:07:02;;;;;;;;;;;;;;;19.54;61.32;98637.41;5000432;28;20113;-87
2022/07/20 10:09:32;;;;;;;14.13;4.20;;;;;;;19.20;61.72;98609.09;5014725;28;19921;-89
2022/07/20 10:12:00;;;;;;;22.42;3.70;;;;;;;19.09;61.45;98588.88;4983456;28;20033;-88
2022/07/20 10:14:34;;;;;;;8.15;2.97;;;;;;;19.28;62.50;98610.75;5000787;28;20054;-90
2022/07/20 10:17:00;;;;;;;6.30;2.55;;;;;;;19.38;61.37;98637.72;4984793;28;20045;-92
2022/07/20 10:19:50;;;;;;;14.02;2.58;;;;;;;19.27;60.59;98614.72;5017039;28;20046;-91
2022/07/20 10:22:18;;;;;;;14.82;2.80;;;;;;;19.15;60.94;98604.72;4976948;28;20086;-91
2022/07/20 10:24:44;;;;;;;7.97;2.88;;;;;;;19.08;61.25;98568.69;4965790;28;20042;-88
2022/07/20 10:27:12;;;;;;;11.48;3.22;;;;;;;19.33;61.32;98613.13;4996516;28;20416;-90
2022/07/20 10:29:46;;;;;;;13.05;3.25;;;;;;;19.28;61.33;98557.31;4979915;28;20132;-91
2022/07/20 10:32:25;;;;;;;11.10;3.30;;;;;;;19.80;60.14;98594.75;4995194;28;20164;-89
2022/07/20 10:35:02;;;;;;;12.13;4.20;;;;;;;19.89;59.92;98567.38;4995763;28;20049;-92
2022/07/20 10:37:43;;;;;;;56.03;18.42;;;;;;;20.27;59.01;98603.94;4997598;28;20042;-93
2022/07/20 10:41:31;;;;;;;11.25;4.53;;;;;;;20.16;58.74;98603.09;5001644;28;20638;-94
2022/07/20 10:43:39;;;;;;;13.57;3.80;;;;;;;20.27;60.16;98586.47;4998811;28;20037;-93
2022/07/20 10:46:34;;;;;;;12.00;3.35;;;;;;;20.21;58.35;98555.53;5007001;28;20119;-93
2022/07/20 10:49:04;;;;;;;12.38;3.65;;;;;;;20.50;58.16;98550.00;5005418;28;20097;-94
2022/07/20 10:51:41;;;;;;;35.03;5.07;;;;;;;21.06;58.64;98570.56;4983161;28;20042;-92
2022/07/20 10:54:32;;;;;;;18.40;4.72;;;;;;;21.57;56.97;98583.88;4995662;28;20431;-92
2022/07/20 10:57:00;;;;;;;14.00;3.80;;;;;;;21.85;55.40;98581.34;4966070;28;20074;-93
2022/07/20 10:59:28;;;;;;;7.95;4.00;;;;;;;21.60;54.87;98531.44;4975451;28;20100;-92
2022/07/20 11:01:58;;;;;;;11.88;4.40;;;;;;;21.45;55.98;98525.91;5002579;28;20050;-92
2022/07/20 11:04:26;;;;;;;15.45;4.60;;;;;;;21.42;54.12;98526.72;4985264;28;20046;-93
2022/07/20 11:06:52;;;;;;;8.25;3.45;;;;;;;21.45;50.97;98548.16;4962022;28;20099;-91
2022/07/20 11:09:18;;;;;;;11.98;3.63;;;;;;;21.15;52.35;98529.22;4963861;28;20054;-90
2022/07/20 11:11:45;;;;;;;9.80;3.92;;;;;;;21.24;53.05;98509.31;4996608;28;20039;-92
2022/07/20 11:14:17;;;;;;;40.35;6.38;;;;;;;21.83;55.34;98567.06;4979921;28;20585;-91
2022/07/20 11:16:43;;;;;;;21.73;5.13;;;;;;;21.94;52.17;98559.41;4966163;28;20192;-91
2022/07/20 11:19:13;;;;;;;11.18;3.75;;;;;;;21.63;50.80;98519.50;4962458;28;20075;-91
2022/07/20 11:21:43;;;;;;;19.98;4.78;;;;;;;22.06;50.62;98553.38;4963533;28;20069;-93
2022/07/20 11:24:35;;;;;;;16.88;4.70;;;;;;;22.31;49.82;98561.56;4981464;28;20042;-92
2022/07/20 11:27:16;;;;;;;14.90;2.83;;;;;;;22.11;50.56;98527.88;5014448;28;20045;-92
2022/07/20 11:29:47;;;;;;;5.15;2.58;;;;;;;22.14;47.29;98520.72;4964526;28;20111;-92
2022/07/20 11:32:20;;;;;;;10.77;3.00;;;;;;;22.31;47.94;98514.22;4994673;28;20042;-92
2022/07/20 11:35:00;;;;;;;16.40;3.40;;;;;;;22.83;46.32;98557.91;4985497;28;20049;-93
2022/07/20 11:37:32;;;;;;;10.10;4.22;;;;;;;22.60;47.64;98488.88;4992378;28;20042;-92
2022/07/20 11:39:58;;;;;;;8.40;3.05;;;;;;;22.54;44.04;98508.03;4979935;28;20041;-90
2022/07/20 11:42:24;;;;;;;11.50;3.00;;;;;;;22.63;43.87;98536.22;4974561;28;20064;-89